Time;durP1;ratioP1;P1;durP2;ratioP2;P2;SDS_P1;SDS_P2;PMS_P1;PMS_P2;Temp;Humidity;BMP_temperature;BMP_pressure;BME280_temperature;BME280_humidity;BME280_pressure;Samples;Min_cycle;Max_cycle;Signal;HPM_P1;HPM_P2
2022/04/15 00:01:40;;;;;;;16.73;9.30;;;8.90;99.90;;;;;;5015480;28;20041;-65
2022/04/15 00:04:05;;;;;;;19.45;8.32;;;8.90;99.90;;;;;;5028754;28;20030;-65
2022/04/15 00:06:32;;;;;;;22.05;12.75;;;8.90;99.90;;;;;;5029417;28;20040;-65
2022/04/15 00:08:59;;;;;;;27.17;11.95;;;8.90;99.90;;;;;;5018732;28;20508;-65
2022/04/15 00:11:25;;;;;;;20.05;9.65;;;8.90;99.90;;;;;;5029033;28;20040;-65
2022/04/15 00:13:50;;;;;;;20.23;10.27;;;8.90;99.90;;;;;;5013187;28;20040;-65
2022/04/15 00:16:16;;;;;;;19.58;9.40;;;8.90;99.90;;;;;;5024726;28;20487;-65
2022/04/15 00:18:43;;;;;;;22.45;10.52;;;8.80;99.90;;;;;;5028721;28;20105;-65
2022/04/15 00:21:09;;;;;;;21.70;11.43;;;8.90;99.90;;;;;;5020529;28;20177;-66
2022/04/15 00:23:35;;;;;;;26.02;11.25;;;8.90;99.90;;;;;;5032340;28;20057;-65
2022/04/15 00:26:01;;;;;;;26.30;11.68;;;8.80;99.90;;;;;;5034410;28;20423;-65
2022/04/15 00:28:27;;;;;;;25.45;13.02;;;8.70;99.90;;;;;;5035532;28;20043;-65
2022/04/15 00:30:54;;;;;;;23.60;12.60;;;8.60;99.90;;;;;;5032357;28;20018;-66
2022/04/15 00:33:21;;;;;;;28.23;13.70;;;8.60;99.90;;;;;;5025148;28;20057;-65
2022/04/15 00:35:47;;;;;;;27.33;13.30;;;8.50;99.90;;;;;;5015455;28;20551;-66
2022/04/15 00:38:13;;;;;;;24.58;13.55;;;8.50;99.90;;;;;;5024162;28;20037;-65
2022/04/15 00:40:39;;;;;;;27.35;13.20;;;8.40;99.90;;;;;;5012803;28;20505;-66
2022/04/15 00:43:04;;;;;;;22.00;11.95;;;8.30;99.90;;;;;;5013276;28;20040;-65
2022/04/15 00:45:30;;;;;;;21.52;11.57;;;8.30;99.90;;;;;;5037639;28;20370;-65
2022/04/15 00:47:57;;;;;;;23.08;12.35;;;8.20;99.90;;;;;;5019219;28;20057;-65
2022/04/15 00:50:33;;;;;;;28.83;13.32;;;8.10;99.90;;;;;;5026608;28;20037;-65
2022/04/15 00:53:06;;;;;;;35.40;17.17;;;7.90;99.90;;;;;;5031794;28;20084;-64
2022/04/15 00:55:32;;;;;;;46.67;20.83;;;7.90;99.90;;;;;;5043888;28;20049;-64
2022/04/15 00:58:01;;;;;;;34.75;17.30;;;7.90;99.90;;;;;;5031234;28;20458;-65
2022/04/15 01:00:29;;;;;;;37.35;16.77;;;8.00;99.90;;;;;;5030177;28;20551;-65
2022/04/15 01:02:58;;;;;;;;;;;8.00;99.90;;;;;;5025825;28;20482;-65
2022/04/15 01:05:25;;;;;;;42.60;21.75;;;8.30;99.90;;;;;;5022865;28;20250;-64
2022/04/15 01:07:52;;;;;;;29.23;16.52;;;8.40;99.90;;;;;;5031359;28;20465;-65
2022/04/15 01:10:20;;;;;;;31.98;15.85;;;8.40;99.90;;;;;;5031765;28;20033;-64
2022/04/15 01:12:51;;;;;;;30.42;14.82;;;8.30;99.90;;;;;;5032226;28;20048;-65
2022/04/15 01:15:19;;;;;;;24.30;11.90;;;8.30;99.90;;;;;;5031833;28;20048;-65
2022/04/15 01:17:44;;;;;;;30.42;12.82;;;8.30;99.90;;;;;;5027258;28;20478;-66
2022/04/15 01:20:12;;;;;;;41.60;19.42;;;8.30;99.90;;;;;;5025307;28;20029;-65
2022/04/15 01:22:40;;;;;;;35.35;18.63;;;8.30;99.90;;;;;;5031727;28;20026;-66
2022/04/15 01:25:12;;;;;;;25.90;11.52;;;8.40;99.90;;;;;;5030685;28;20033;-65
2022/04/15 01:27:46;;;;;;;25.80;13.02;;;8.50;99.90;;;;;;5028001;28;20057;-66
2022/04/15 01:30:17;;;;;;;23.88;12.75;;;8.60;99.90;;;;;;5026092;28;20025;-66
2022/04/15 01:32:43;;;;;;;22.67;13.02;;;8.50;99.90;;;;;;5031057;28;20477;-66
2022/04/15 01:35:11;;;;;;;26.73;13.30;;;8.50;99.90;;;;;;5031687;28;20025;-66
2022/04/15 01:37:37;;;;;;;;;;;8.50;99.90;;;;;;5029500;28;20029;-66
2022/04/15 01:40:05;;;;;;;32.42;15.48;;;8.40;99.90;;;;;;5017891;28;20003;-65
2022/04/15 01:42:31;;;;;;;34.33;16.02;;;8.40;99.90;;;;;;5028394;28;20382;-65
2022/04/15 01:44:57;;;;;;;38.13;15.18;;;8.40;99.90;;;;;;5036037;28;20111;-65
2022/04/15 01:47:23;;;;;;;24.60;13.15;;;8.30;99.90;;;;;;5040282;28;20542;-65
2022/04/15 01:49:48;;;;;;;24.48;13.73;;;8.20;99.90;;;;;;5016163;28;20040;-65
2022/04/15 01:52:14;;;;;;;26.73;14.07;;;8.10;99.90;;;;;;5022161;28;20033;-65
2022/04/15 01:54:40;;;;;;;25.75;14.63;;;8.10;99.90;;;;;;5037547;28;20158;-66
2022/04/15 01:57:05;;;;;;;29.77;14.27;;;8.10;99.90;;;;;;5025185;28;20022;-65
2022/04/15 01:59:31;;;;;;;29.10;15.60;;;8.00;99.90;;;;;;5020296;28;20560;-65
2022/04/15 02:01:57;;;;;;;25.80;15.00;;;8.00;99.90;;;;;;5038808;28;20031;-65
2022/04/15 02:04:26;;;;;;;33.03;16.55;;;7.90;99.90;;;;;;5031316;28;20034;-66
2022/04/15 02:06:53;;;;;;;30.10;16.45;;;7.90;99.90;;;;;;5031472;28;20021;-65
2022/04/15 02:09:19;;;;;;;31.40;17.75;;;7.90;99.90;;;;;;5025397;28;20031;-65
2022/04/15 02:11:45;;;;;;;33.15;16.52;;;7.90;99.90;;;;;;5036813;28;20033;-65
2022/04/15 02:14:12;;;;;;;37.00;18.95;;;8.00;99.90;;;;;;5028729;28;20033;-65
2022/04/15 02:16:39;;;;;;;36.40;20.00;;;8.00;99.90;;;;;;5035969;28;20405;-66
2022/04/15 02:19:04;;;;;;;39.03;20.35;;;8.00;99.90;;;;;;5030951;28;20030;-66
2022/04/15 02:21:30;;;;;;;41.85;21.08;;;8.10;99.90;;;;;;5013758;28;20030;-65
2022/04/15 02:23:56;;;;;;;35.63;18.25;;;8.10;99.90;;;;;;5015728;28;20029;-65
2022/04/15 02:26:21;;;;;;;35.70;18.85;;;8.00;99.90;;;;;;5033612;28;20037;-65
2022/04/15 02:28:47;;;;;;;35.13;19.65;;;8.00;99.90;;;;;;5034727;28;20163;-65
2022/04/15 02:31:13;;;;;;;38.42;19.63;;;7.90;99.90;;;;;;5041431;28;20033;-66
2022/04/15 02:33:38;;;;;;;35.72;18.25;;;7.80;99.90;;;;;;5033759;28;20036;-66
2022/04/15 02:36:04;;;;;;;37.60;18.40;;;7.80;99.90;;;;;;5035444;28;20433;-66
2022/04/15 02:38:30;;;;;;;33.90;19.73;;;7.80;99.90;;;;;;5034338;28;20389;-66
2022/04/15 02:40:56;;;;;;;41.20;20.98;;;7.70;99.90;;;;;;5033775;28;20037;-66
2022/04/15 02:43:25;;;;;;;47.60;23.15;;;7.70;99.90;;;;;;5034841;28;20515;-65
2022/04/15 02:45:51;;;;;;;48.55;25.02;;;7.70;99.90;;;;;;5035170;28;20034;-66
2022/04/15 02:48:17;;;;;;;49.05;23.75;;;7.80;99.90;;;;;;5031964;28;20440;-65
2022/04/15 02:50:44;;;;;;;58.47;28.63;;;7.80;99.90;;;;;;5033731;28;20462;-65
2022/04/15 02:53:11;;;;;;;64.78;27.60;;;7.80;99.90;;;;;;5034578;28;20032;-65
2022/04/15 02:55:36;;;;;;;62.78;28.35;;;7.90;99.90;;;;;;5033047;28;20033;-65
2022/04/15 02:58:02;;;;;;;52.97;26.65;;;7.90;99.90;;;;;;5018654;28;20034;-66
2022/04/15 03:00:28;;;;;;;50.00;24.20;;;7.90;99.90;;;;;;5033568;28;20022;-66
2022/04/15 03:02:53;;;;;;;55.88;25.55;;;7.90;99.90;;;;;;5033850;28;20371;-65
2022/04/15 03:05:19;;;;;;;60.67;26.05;;;7.90;99.90;;;;;;5033748;28;20033;-66
2022/04/15 03:07:45;;;;;;;57.70;25.67;;;7.80;99.90;;;;;;5029122;28;20030;-65
2022/04/15 03:10:10;;;;;;;61.05;27.25;;;7.80;99.90;;;;;;5034480;28;20033;-65
2022/04/15 03:12:38;;;;;;;46.92;23.42;;;7.80;99.90;;;;;;5039104;28;20032;-66
2022/04/15 03:15:05;;;;;;;41.80;20.75;;;7.90;99.90;;;;;;5033535;28;20436;-65
2022/04/15 03:17:33;;;;;;;38.88;19.17;;;7.70;99.90;;;;;;5033685;28;20120;-65
2022/04/15 03:20:02;;;;;;;45.40;21.48;;;7.70;99.90;;;;;;5035266;28;20030;-65
2022/04/15 03:22:38;;;;;;;53.10;20.23;;;7.70;99.90;;;;;;5033326;28;20033;-65
2022/04/15 03:25:09;;;;;;;89.82;22.35;;;7.60;99.90;;;;;;5034003;28;20029;-65
2022/04/15 03:27:35;;;;;;;86.78;22.90;;;7.50;99.90;;;;;;5033717;28;20033;-65
2022/04/15 03:30:00;;;;;;;40.05;19.70;;;7.40;99.90;;;;;;5036940;28;20533;-65
2022/04/15 03:32:26;;;;;;;35.97;18.23;;;7.30;99.90;;;;;;5053956;28;20068;-65
2022/04/15 03:34:53;;;;;;;31.33;16.58;;;7.40;99.90;;;;;;5038339;28;20037;-65
2022/04/15 03:37:18;;;;;;;18.90;11.70;;;7.30;99.90;;;;;;5031194;28;20551;-65
2022/04/15 03:39:44;;;;;;;25.73;14.55;;;7.10;99.90;;;;;;5035240;28;20029;-65
2022/04/15 03:42:10;;;;;;;19.80;12.23;;;7.10;99.90;;;;;;5028633;28;20022;-65
2022/04/15 03:44:36;;;;;;;29.33;16.20;;;7.00;99.90;;;;;;5033261;28;20028;-65
2022/04/15 03:47:05;;;;;;;51.63;22.65;;;6.90;99.90;;;;;;5033185;28;20025;-65
2022/04/15 03:49:31;;;;;;;58.92;24.38;;;6.90;99.90;;;;;;5035956;28;20033;-65
2022/04/15 03:51:57;;;;;;;75.35;26.08;;;6.90;99.90;;;;;;5041329;28;20044;-65
2022/04/15 03:54:23;;;;;;;82.75;27.75;;;7.00;99.90;;;;;;5030951;28;20062;-65
2022/04/15 03:56:48;;;;;;;65.63;25.40;;;7.00;99.90;;;;;;5032549;28;20076;-66
2022/04/15 03:59:14;;;;;;;53.40;22.83;;;7.10;99.90;;;;;;5033323;28;20022;-65
2022/04/15 04:01:40;;;;;;;58.10;22.95;;;7.10;99.90;;;;;;5030258;28;20405;-65
2022/04/15 04:04:05;;;;;;;68.13;25.42;;;7.10;99.90;;;;;;5031662;28;20029;-64
2022/04/15 04:06:31;;;;;;;56.97;24.33;;;7.10;99.90;;;;;;5033258;28;20029;-65
2022/04/15 04:08:57;;;;;;;66.50;24.98;;;7.10;99.90;;;;;;5032818;28;20075;-65
2022/04/15 04:11:23;;;;;;;121.28;29.38;;;7.10;99.90;;;;;;5051063;28;20378;-65
2022/04/15 04:13:48;;;;;;;133.70;31.95;;;7.00;99.90;;;;;;5047220;28;20659;-64
2022/04/15 04:16:14;;;;;;;139.65;34.35;;;7.00;99.90;;;;;;5027983;28;20018;-64
2022/04/15 04:18:41;;;;;;;85.70;29.60;;;7.00;99.90;;;;;;5016262;28;20465;-65
2022/04/15 04:21:07;;;;;;;65.97;24.17;;;7.10;99.90;;;;;;5033245;28;20102;-65
2022/04/15 04:23:34;;;;;;;74.60;26.88;;;7.10;99.90;;;;;;5033134;28;20091;-66
2022/04/15 04:26:00;;;;;;;102.68;30.55;;;7.00;99.90;;;;;;5031552;28;20536;-65
2022/04/15 04:28:26;;;;;;;104.55;32.22;;;7.00;99.90;;;;;;5031477;28;20025;-65
2022/04/15 04:30:52;;;;;;;123.53;36.03;;;7.10;99.90;;;;;;5034076;28;20033;-65
2022/04/15 04:33:18;;;;;;;128.90;37.35;;;7.10;99.90;;;;;;5025115;28;20025;-65
2022/04/15 04:35:44;;;;;;;108.35;33.10;;;7.20;99.90;;;;;;5032479;28;20525;-65
2022/04/15 04:38:10;;;;;;;125.57;35.63;;;7.20;99.90;;;;;;5032592;28;20116;-66
2022/04/15 04:40:36;;;;;;;138.82;39.72;;;7.20;99.90;;;;;;5025552;28;20029;-65
2022/04/15 04:43:04;;;;;;;163.20;40.08;;;7.30;99.90;;;;;;5032679;28;20033;-66
2022/04/15 04:45:30;;;;;;;120.13;36.22;;;7.30;99.90;;;;;;5031676;28;20026;-65
2022/04/15 04:47:57;;;;;;;118.50;37.17;;;7.30;99.90;;;;;;5030038;28;20119;-66
2022/04/15 04:50:23;;;;;;;140.07;37.30;;;7.30;99.90;;;;;;5033741;28;20033;-67
2022/04/15 04:52:49;;;;;;;123.00;34.35;;;7.30;99.90;;;;;;5031922;28;20369;-65
2022/04/15 04:55:15;;;;;;;125.57;36.25;;;7.30;99.90;;;;;;5023659;28;20046;-66
2022/04/15 04:57:44;;;;;;;97.03;34.17;;;7.40;99.90;;;;;;5040084;28;20029;-65
2022/04/15 05:00:15;;;;;;;103.05;32.60;;;7.50;99.90;;;;;;5031949;28;20037;-65
2022/04/15 05:02:41;;;;;;;94.47;32.92;;;7.60;99.90;;;;;;5032257;28;20493;-65
2022/04/15 05:05:07;;;;;;;103.30;34.15;;;7.70;99.90;;;;;;5033641;28;20036;-64
2022/04/15 05:07:33;;;;;;;86.40;31.17;;;7.80;99.90;;;;;;5029017;28;20083;-64
2022/04/15 05:09:59;;;;;;;85.28;30.55;;;7.90;99.90;;;;;;5031798;28;20021;-65
2022/04/15 05:12:25;;;;;;;63.60;26.20;;;7.80;99.90;;;;;;5031282;28;20489;-65
2022/04/15 05:14:51;;;;;;;56.75;24.83;;;7.70;99.90;;;;;;5034015;28;20029;-65
2022/04/15 05:17:17;;;;;;;70.35;19.77;;;7.70;99.90;;;;;;5048696;28;20056;-65
2022/04/15 05:19:44;;;;;;;46.47;19.17;;;7.60;99.90;;;;;;5031609;28;20032;-65
2022/04/15 05:22:10;;;;;;;42.67;19.13;;;7.50;99.90;;;;;;5030326;28;20017;-65
2022/04/15 05:24:36;;;;;;;44.47;17.25;;;7.50;99.90;;;;;;5032579;28;20525;-65
2022/04/15 05:27:02;;;;;;;47.00;16.10;;;7.40;99.90;;;;;;5039818;28;20029;-65
2022/04/15 05:29:28;;;;;;;31.33;16.80;;;7.40;99.90;;;;;;5031771;28;20040;-65
2022/04/15 05:31:54;;;;;;;47.22;16.52;;;7.40;99.90;;;;;;5019419;28;20486;-65
2022/04/15 05:34:19;;;;;;;34.60;17.08;;;7.30;99.90;;;;;;5030600;28;20033;-65
2022/04/15 05:36:45;;;;;;;84.25;18.90;;;7.30;99.90;;;;;;5035053;28;20028;-65
2022/04/15 05:39:10;;;;;;;38.97;17.45;;;7.20;99.90;;;;;;5029642;28;20034;-66
2022/04/15 05:41:36;;;;;;;78.97;19.25;;;7.20;99.90;;;;;;5030675;28;20120;-65
2022/04/15 05:44:03;;;;;;;45.00;21.65;;;7.10;99.90;;;;;;5026227;28;20033;-66
2022/04/15 05:46:32;;;;;;;36.38;18.48;;;7.00;99.90;;;;;;5034704;28;20021;-65
2022/04/15 05:48:58;;;;;;;72.47;19.50;;;7.10;99.90;;;;;;5032642;28;20056;-65
2022/04/15 05:51:24;;;;;;;58.08;24.25;;;7.10;99.90;;;;;;5033080;28;20497;-64
2022/04/15 05:53:49;;;;;;;46.53;21.75;;;7.10;99.90;;;;;;5031074;28;20112;-64
2022/04/15 05:56:15;;;;;;;54.03;24.90;;;7.20;99.90;;;;;;5031883;28;20057;-65
2022/04/15 05:58:41;;;;;;;42.80;22.08;;;7.30;99.90;;;;;;5031827;28;20025;-65
2022/04/15 06:01:09;;;;;;;39.13;19.10;;;7.30;99.90;;;;;;5037522;28;20029;-65
2022/04/15 06:03:35;;;;;;;44.38;21.60;;;7.30;99.90;;;;;;5052224;28;20032;-65
2022/04/15 06:06:01;;;;;;;75.05;29.33;;;7.30;99.90;;;;;;5031185;28;20037;-65
2022/04/15 06:08:27;;;;;;;87.47;31.35;;;7.40;99.90;;;;;;5032229;28;20029;-65
2022/04/15 06:10:53;;;;;;;61.83;27.00;;;7.50;99.90;;;;;;5029622;28;20053;-66
2022/04/15 06:13:22;;;;;;;39.38;22.33;;;7.60;99.90;;;;;;5031512;28;20030;-65
2022/04/15 06:15:53;;;;;;;43.85;21.83;;;7.70;99.90;;;;;;5023070;28;20067;-65
2022/04/15 06:18:23;;;;;;;66.10;28.10;;;7.80;99.90;;;;;;5031461;28;20025;-65
2022/04/15 06:20:50;;;;;;;67.53;30.05;;;7.90;99.90;;;;;;5040080;28;20025;-64
2022/04/15 06:23:17;;;;;;;72.55;28.73;;;8.10;99.90;;;;;;5031847;28;20052;-65
2022/04/15 06:25:43;;;;;;;47.15;25.30;;;8.30;99.90;;;;;;5029911;28;20025;-65
2022/04/15 06:28:10;;;;;;;53.20;22.70;;;8.50;99.90;;;;;;5023647;28;20022;-64
2022/04/15 06:30:36;;;;;;;49.42;22.70;;;8.70;99.90;;;;;;5038486;28;20071;-65
2022/04/15 06:33:02;;;;;;;44.55;21.42;;;8.70;99.90;;;;;;5027502;28;20033;-64
2022/04/15 06:35:28;;;;;;;39.55;19.92;;;8.80;99.90;;;;;;5028077;28;20044;-64
2022/04/15 06:37:53;;;;;;;39.90;19.10;;;9.00;99.90;;;;;;5028114;28;20025;-64
2022/04/15 06:40:19;;;;;;;37.80;18.60;;;9.20;99.90;;;;;;5026815;28;20040;-64
2022/04/15 06:42:45;;;;;;;31.20;17.55;;;9.30;99.90;;;;;;5020287;28;20397;-64
2022/04/15 06:45:13;;;;;;;28.90;16.48;;;9.40;99.90;;;;;;5028671;28;20029;-64
2022/04/15 06:47:39;;;;;;;30.80;16.38;;;9.60;99.90;;;;;;5037562;28;20408;-64
2022/04/15 06:50:05;;;;;;;23.13;15.43;;;9.60;99.90;;;;;;5045158;28;20041;-64
2022/04/15 06:52:31;;;;;;;25.60;14.57;;;9.70;99.90;;;;;;5043131;28;20040;-65
2022/04/15 06:54:57;;;;;;;27.55;15.30;;;9.70;99.90;;;;;;5050989;28;20596;-65
2022/04/15 06:57:22;;;;;;;25.75;16.35;;;9.70;99.90;;;;;;5033709;28;20057;-65
2022/04/15 06:59:48;;;;;;;28.90;16.15;;;9.70;99.90;;;;;;5031879;28;20071;-65
2022/04/15 07:02:14;;;;;;;31.10;18.58;;;9.70;99.90;;;;;;5038887;28;20076;-65
2022/04/15 07:04:40;;;;;;;37.33;20.20;;;9.70;99.90;;;;;;5045391;28;20433;-65
2022/04/15 07:07:06;;;;;;;41.65;20.20;;;9.70;99.90;;;;;;5026934;28;20038;-65
2022/04/15 07:09:32;;;;;;;32.17;17.70;;;9.70;99.90;;;;;;5022744;28;20037;-65
2022/04/15 07:11:57;;;;;;;30.75;17.60;;;9.80;99.90;;;;;;5028587;28;20075;-66
2022/04/15 07:14:23;;;;;;;30.13;15.80;;;9.90;99.90;;;;;;5025198;28;20488;-65
2022/04/15 07:16:49;;;;;;;29.20;16.48;;;10.10;99.90;;;;;;5045948;28;20044;-65
2022/04/15 07:19:15;;;;;;;29.70;16.40;;;10.30;99.90;;;;;;5034068;28;20025;-65
2022/04/15 07:21:43;;;;;;;32.65;16.25;;;10.60;99.90;;;;;;5029727;28;20018;-65
2022/04/15 07:24:09;;;;;;;23.52;14.57;;;10.80;99.90;;;;;;5017886;28;20393;-65
2022/04/15 07:26:35;;;;;;;28.02;14.00;;;11.00;99.90;;;;;;5017094;28;20048;-65
2022/04/15 07:29:01;;;;;;;22.02;13.88;;;11.20;99.90;;;;;;5030216;28;20025;-65
2022/04/15 07:31:27;;;;;;;21.45;13.57;;;11.40;99.90;;;;;;5015585;28;20029;-65
2022/04/15 07:33:53;;;;;;;21.13;12.93;;;11.60;99.90;;;;;;5025758;28;20036;-66
2022/04/15 07:36:42;;;;;;;20.77;12.23;;;11.70;99.90;;;;;;5035265;28;20075;-66
2022/04/15 07:39:14;;;;;;;17.80;11.43;;;11.90;99.90;;;;;;5013506;28;20022;-66
2022/04/15 07:41:41;;;;;;;19.00;11.82;;;12.10;99.90;;;;;;5014526;28;20117;-66
2022/04/15 07:44:08;;;;;;;19.67;10.82;;;12.20;99.90;;;;;;5027194;28;20604;-65
2022/04/15 07:46:35;;;;;;;19.05;11.35;;;12.40;99.90;;;;;;5033195;28;20033;-65
2022/04/15 07:49:01;;;;;;;19.65;10.50;;;12.50;99.90;;;;;;5031792;28;20430;-66
2022/04/15 07:51:27;;;;;;;18.10;10.40;;;12.80;99.90;;;;;;5028107;28;20033;-64
2022/04/15 07:53:53;;;;;;;17.75;9.85;;;12.90;99.90;;;;;;5033223;28;20128;-64
2022/04/15 07:56:19;;;;;;;15.23;9.68;;;13.00;99.90;;;;;;5031641;28;20017;-64
2022/04/15 07:58:44;;;;;;;13.77;8.68;;;13.10;99.90;;;;;;5051618;28;20029;-65
2022/04/15 08:01:10;;;;;;;17.95;8.88;;;13.10;99.90;;;;;;5033301;28;20063;-64
2022/04/15 08:03:37;;;;;;;17.75;9.68;;;13.30;99.90;;;;;;5034454;28;20099;-64
2022/04/15 08:06:03;;;;;;;16.63;9.73;;;13.50;99.90;;;;;;5029565;28;20544;-64
2022/04/15 08:08:29;;;;;;;16.58;9.13;;;13.50;99.90;;;;;;5028798;28;20033;-64
2022/04/15 08:10:56;;;;;;;11.18;7.43;;;13.50;99.90;;;;;;5033671;28;20115;-65
2022/04/15 08:13:23;;;;;;;12.18;7.57;;;13.60;99.90;;;;;;5037668;28;20036;-64
2022/04/15 08:15:53;;;;;;;11.18;7.70;;;13.80;99.90;;;;;;5031336;28;20025;-64
2022/04/15 08:18:19;;;;;;;9.77;6.97;;;13.90;99.90;;;;;;5013787;28;20029;-65
2022/04/15 08:20:45;;;;;;;11.10;7.15;;;14.10;99.90;;;;;;5020773;28;20016;-64
2022/04/15 08:23:11;;;;;;;13.75;7.82;;;14.10;99.90;;;;;;5029476;28;20117;-64
2022/04/15 08:25:39;;;;;;;12.20;7.20;;;14.20;99.90;;;;;;5051317;28;20037;-64
2022/04/15 08:28:05;;;;;;;11.60;6.70;;;14.40;99.90;;;;;;5053317;28;20028;-64
2022/04/15 08:30:33;;;;;;;8.68;5.68;;;14.60;99.90;;;;;;5052797;28;20392;-64
2022/04/15 08:32:59;;;;;;;9.93;5.25;;;14.90;99.90;;;;;;5029260;28;20390;-64
2022/04/15 08:35:26;;;;;;;12.82;5.68;;;15.20;99.90;;;;;;5023054;28;20079;-65
2022/04/15 08:37:52;;;;;;;11.93;5.65;;;15.40;99.90;;;;;;5033105;28;20033;-64
2022/04/15 08:40:18;;;;;;;10.30;5.32;;;15.60;99.90;;;;;;5032595;28;20025;-64
2022/04/15 08:42:44;;;;;;;10.35;4.85;;;15.70;99.90;;;;;;5037780;28;20051;-64
2022/04/15 08:45:12;;;;;;;9.05;4.63;;;15.90;99.90;;;;;;5037379;28;20091;-64
2022/04/15 08:47:39;;;;;;;11.02;4.80;;;16.20;99.90;;;;;;5032745;28;20091;-65
2022/04/15 08:50:07;;;;;;;5.07;4.10;;;16.50;99.90;;;;;;5024205;28;20512;-65
2022/04/15 08:52:33;;;;;;;10.23;4.10;;;16.70;99.90;;;;;;5038646;28;20033;-65
2022/04/15 08:54:59;;;;;;;9.43;4.82;;;17.00;99.90;;;;;;5052305;28;20060;-65
2022/04/15 08:57:25;;;;;;;7.93;4.90;;;17.00;99.90;;;;;;5016413;28;20057;-65
2022/04/15 08:59:51;;;;;;;6.15;3.83;;;17.10;99.40;;;;;;5021878;28;20061;-65
2022/04/15 09:02:32;;;;;;;10.75;4.28;;;17.20;99.90;;;;;;5041646;28;20036;-66
2022/04/15 09:04:58;;;;;;;10.27;5.43;;;17.30;97.50;;;;;;5048917;28;20112;-65
2022/04/15 09:07:28;;;;;;;8.10;4.65;;;17.50;97.10;;;;;;5027968;28;20026;-65
2022/04/15 09:10:00;;;;;;;11.70;5.90;;;17.60;97.20;;;;;;5040242;28;20029;-66
2022/04/15 09:12:30;;;;;;;11.48;5.30;;;17.70;95.90;;;;;;5047393;28;20426;-65
2022/04/15 09:15:07;;;;;;;9.02;5.85;;;18.00;95.00;;;;;;5051422;28;20025;-65
2022/04/15 09:17:35;;;;;;;9.63;5.50;;;18.20;94.10;;;;;;5042320;28;20029;-65
2022/04/15 09:20:02;;;;;;;8.30;5.53;;;18.10;97.00;;;;;;5034254;28;20037;-65
2022/04/15 09:22:28;;;;;;;9.25;4.40;;;18.10;92.50;;;;;;5031614;28;20025;-66
2022/04/15 09:24:54;;;;;;;7.78;3.80;;;18.50;95.40;;;;;;5031820;28;20086;-65
2022/04/15 09:27:20;;;;;;;7.13;4.25;;;19.00;92.60;;;;;;5038680;28;20033;-66
2022/04/15 09:29:46;;;;;;;9.23;5.10;;;19.40;92.30;;;;;;5048641;28;20040;-65
2022/04/15 09:32:14;;;;;;;7.53;4.00;;;19.90;87.80;;;;;;5031921;28;20045;-65
2022/04/15 09:35:03;;;;;;;4.30;3.10;;;20.10;90.80;;;;;;5031858;28;20066;-66
2022/04/15 09:37:40;;;;;;;4.15;3.25;;;20.50;90.00;;;;;;5025057;28;20018;-65
2022/04/15 09:40:08;;;;;;;5.43;3.08;;;20.80;81.20;;;;;;5011807;28;20022;-65
2022/04/15 09:42:35;;;;;;;4.63;3.05;;;20.80;75.80;;;;;;5012406;28;20038;-66
2022/04/15 09:45:25;;;;;;;3.47;2.67;;;20.20;82.20;;;;;;5021504;28;20025;-67
2022/04/15 09:47:53;;;;;;;5.68;2.42;;;20.20;84.80;;;;;;5040413;28;20048;-67
2022/04/15 09:50:26;;;;;;;4.85;2.83;;;20.40;86.30;;;;;;5051844;28;20040;-66
2022/04/15 09:52:53;;;;;;;4.68;2.80;;;20.60;84.60;;;;;;5051516;28;20669;-66
2022/04/15 09:55:20;;;;;;;4.85;2.70;;;21.20;82.70;;;;;;5045001;28;20042;-66
2022/04/15 09:57:48;;;;;;;5.90;3.65;;;22.10;74.20;;;;;;5025522;28;20046;-66
2022/04/15 10:00:19;;;;;;;6.28;3.60;;;21.80;68.70;;;;;;5025527;28;20042;-67
2022/04/15 10:02:46;;;;;;;4.00;3.40;;;21.50;74.80;;;;;;5030615;28;20112;-66
2022/04/15 10:05:13;;;;;;;5.32;3.30;;;21.30;77.30;;;;;;5021456;28;20030;-66
2022/04/15 10:07:42;;;;;;;7.07;3.20;;;21.90;73.90;;;;;;5031458;28;20034;-66
2022/04/15 10:10:09;;;;;;;5.00;3.20;;;22.40;69.20;;;;;;5031312;28;20032;-66
2022/04/15 10:12:41;;;;;;;6.50;3.60;;;23.00;72.10;;;;;;5013819;28;20125;-66
2022/04/15 10:15:09;;;;;;;6.70;3.72;;;22.80;66.60;;;;;;5024691;28;20088;-66
2022/04/15 10:17:39;;;;;;;7.97;4.63;;;22.20;70.00;;;;;;5011604;28;20092;-67
2022/04/15 10:20:06;;;;;;;7.72;5.10;;;22.00;81.10;;;;;;5011670;28;20589;-66
2022/04/15 10:22:34;;;;;;;6.47;4.68;;;22.00;84.80;;;;;;5011611;28;20076;-66
2022/04/15 10:25:00;;;;;;;12.00;5.78;;;22.10;80.40;;;;;;5025929;28;20393;-66
2022/04/15 10:27:30;;;;;;;7.28;4.82;;;21.90;76.90;;;;;;5051054;28;20025;-67
2022/04/15 10:30:13;;;;;;;7.68;4.97;;;21.80;83.30;;;;;;5039168;28;20021;-68
2022/04/15 10:32:59;;;;;;;8.32;4.88;;;22.00;82.00;;;;;;5026967;28;20030;-67
2022/04/15 10:35:29;;;;;;;7.35;4.70;;;22.20;80.80;;;;;;5051348;28;20033;-67
2022/04/15 10:38:13;;;;;;;7.78;4.60;;;22.70;80.70;;;;;;5027657;28;20548;-67
2022/04/15 10:40:45;;;;;;;9.20;5.03;;;23.10;69.20;;;;;;5011433;28;20096;-66
2022/04/15 10:43:20;;;;;;;7.35;4.63;;;23.10;66.20;;;;;;5022480;28;20410;-68
2022/04/15 10:45:46;;;;;;;8.05;5.15;;;22.40;68.10;;;;;;5014186;28;20766;-67
2022/04/15 10:48:12;;;;;;;7.03;4.65;;;21.90;75.30;;;;;;5013420;28;20057;-66
2022/04/15 10:50:41;;;;;;;7.80;3.80;;;22.40;80.40;;;;;;5021104;28;20056;-66
2022/04/15 10:53:23;;;;;;;12.05;5.43;;;22.70;77.60;;;;;;5031570;28;20503;-67
2022/04/15 10:55:52;;;;;;;10.77;5.28;;;22.40;73.70;;;;;;5054666;28;20041;-66
2022/04/15 10:58:19;;;;;;;9.27;5.90;;;22.70;77.20;;;;;;5054457;28;20112;-65
2022/04/15 11:01:14;;;;;;;;;;;22.90;69.30;;;;;;5054959;28;20053;-66
2022/04/15 11:03:41;;;;;;;10.43;5.40;;;22.70;77.00;;;;;;5039188;28;20292;-68
2022/04/15 11:06:09;;;;;;;11.55;5.80;;;22.80;70.20;;;;;;5034669;28;20185;-67
2022/04/15 11:08:51;;;;;;;10.40;5.47;;;22.50;71.10;;;;;;5034560;28;20056;-66
2022/04/15 11:11:18;;;;;;;8.25;5.28;;;22.00;71.80;;;;;;5034513;28;20378;-66
2022/04/15 11:13:44;;;;;;;;;;;22.20;73.30;;;;;;5050233;28;20037;-65
2022/04/15 11:16:13;;;;;;;9.73;5.32;;;22.10;71.50;;;;;;5018118;28;20051;-66
2022/04/15 11:18:56;;;;;;;8.13;5.25;;;22.00;77.20;;;;;;5014630;28;20030;-66
2022/04/15 11:21:33;;;;;;;9.23;6.03;;;21.90;70.00;;;;;;5014174;28;20437;-66
2022/04/15 11:24:00;;;;;;;;;;;22.00;78.70;;;;;;5047940;28;20043;-65
2022/04/15 11:26:28;;;;;;;10.40;4.35;;;21.60;74.50;;;;;;5054573;28;19905;-66
2022/04/15 11:28:55;;;;;;;5.88;3.97;;;21.30;71.70;;;;;;5035505;28;20033;-65
2022/04/15 11:31:41;;;;;;;;;;;21.10;69.50;;;;;;5018355;28;20024;-65
2022/04/15 11:34:09;;;;;;;7.53;4.00;;;20.80;76.10;;;;;;5049841;28;20342;-65
2022/04/15 11:36:39;;;;;;;6.60;3.30;;;20.80;69.20;;;;;;5048145;28;21485;-66
2022/04/15 11:39:08;;;;;;;5.32;3.20;;;20.60;74.50;;;;;;5013956;28;20030;-65
2022/04/15 11:41:34;;;;;;;10.93;3.40;;;20.60;71.00;;;;;;5032589;28;20440;-66
2022/04/15 11:44:05;;;;;;;5.20;3.10;;;21.00;75.60;;;;;;5053799;28;20025;-66
2022/04/15 11:46:44;;;;;;;5.18;2.75;;;21.30;68.90;;;;;;5053596;28;20033;-65
2022/04/15 11:49:21;;;;;;;6.20;2.47;;;21.40;66.50;;;;;;5015266;28;20033;-66
2022/04/15 11:51:52;;;;;;;4.57;3.15;;;21.50;62.90;;;;;;5035545;28;20087;-65
2022/04/15 11:54:22;;;;;;;6.03;3.80;;;21.20;68.20;;;;;;5034499;28;20049;-64
2022/04/15 11:56:53;;;;;;;7.05;3.90;;;20.70;74.80;;;;;;5033329;28;20025;-64
2022/04/15 11:59:18;;;;;;;7.60;4.07;;;20.00;72.80;;;;;;5033138;28;20028;-65
2022/04/15 12:01:44;;;;;;;5.97;3.35;;;19.90;74.80;;;;;;5027464;28;20018;-65
2022/04/15 12:04:10;;;;;;;5.75;4.00;;;20.30;73.50;;;;;;5037817;28;20037;-66
2022/04/15 12:06:40;;;;;;;7.25;4.13;;;20.80;75.70;;;;;;5030125;28;20034;-66
2022/04/15 12:09:11;;;;;;;7.70;4.30;;;21.10;74.70;;;;;;5013524;28;20041;-64
2022/04/15 12:11:38;;;;;;;9.23;4.38;;;22.20;67.00;;;;;;5013859;28;20032;-66
2022/04/15 12:14:04;;;;;;;6.30;3.70;;;22.30;67.50;;;;;;5028454;28;20030;-65
2022/04/15 12:16:31;;;;;;;7.57;4.40;;;22.30;66.20;;;;;;5014777;28;20326;-65
2022/04/15 12:18:59;;;;;;;9.35;5.05;;;22.80;66.00;;;;;;5013389;28;20022;-65
2022/04/15 12:21:26;;;;;;;;;;;22.90;63.40;;;;;;5013766;28;20026;-65
2022/04/15 12:24:09;;;;;;;6.63;4.40;;;22.90;66.30;;;;;;5025314;28;20446;-65
2022/04/15 12:26:50;;;;;;;9.98;5.25;;;23.80;60.10;;;;;;5053256;28;20497;-65
2022/04/15 12:32:19;;;;;;;;;;;24.40;58.80;;;;;;5044305;28;20036;-66
2022/04/15 12:34:47;;;;;;;7.72;4.07;;;24.90;56.60;;;;;;5046054;28;20070;-65
2022/04/15 12:37:33;;;;;;;9.30;4.70;;;23.90;59.30;;;;;;5037288;28;20457;-65
2022/04/15 12:40:00;;;;;;;10.02;5.15;;;24.70;57.60;;;;;;5030572;28;20568;-65
2022/04/15 12:42:27;;;;;;;7.35;4.43;;;25.10;55.70;;;;;;5026594;28;20026;-66
2022/04/15 12:44:53;;;;;;;9.02;4.28;;;26.10;53.40;;;;;;5025518;28;20836;-63
2022/04/15 12:47:18;;;;;;;10.13;5.10;;;26.00;51.80;;;;;;5022728;28;20101;-64